Time;durP1;ratioP1;P1;durP2;ratioP2;P2;SDS_P1;SDS_P2;PMS_P1;PMS_P2;Temp;Humidity;BMP_temperature;BMP_pressure;BME280_temperature;BME280_humidity;BME280_pressure;Samples;Min_cycle;Max_cycle;Signal;HPM_P1;HPM_P2
2024/02/24 00:01:55;;;;;;;5.90;3.75;;;;;;;14.63;64.30;97007.91;5098091;28;20127;-82
2024/02/24 00:05:03;;;;;;;5.50;3.35;;;;;;;14.52;64.92;96985.59;5099507;28;20040;-82
2024/02/24 00:08:19;;;;;;;8.32;3.20;;;;;;;14.62;64.96;96992.75;5095706;28;20043;-82
2024/02/24 00:11:26;;;;;;;4.70;3.30;;;;;;;14.57;65.62;96992.31;5054170;28;20047;-82
2024/02/24 00:14:35;;;;;;;6.65;4.00;;;;;;;14.49;66.47;96984.03;5071971;28;20039;-81
2024/02/24 00:17:25;;;;;;;6.70;3.67;;;;;;;14.56;66.58;96990.59;5088389;28;20607;-82
2024/02/24 00:20:31;;;;;;;7.00;3.83;;;;;;;14.45;67.34;96979.06;5089895;28;20111;-82
2024/02/24 00:24:05;;;;;;;5.45;3.35;;;;;;;14.45;67.81;96979.91;5090406;28;20491;-82
2024/02/24 00:27:18;;;;;;;6.22;3.60;;;;;;;14.43;68.10;96976.47;5087591;28;20035;-81
2024/02/24 00:30:58;;;;;;;7.60;4.03;;;;;;;14.37;69.47;96990.47;5089447;28;20507;-82
2024/02/24 00:33:50;;;;;;;5.55;3.40;;;;;;;14.39;69.35;96972.38;5082686;28;20020;-82
2024/02/24 00:37:01;;;;;;;5.15;3.30;;;;;;;14.50;69.35;96983.03;5089361;28;20152;-82
2024/02/24 00:40:22;;;;;;;5.25;2.88;;;;;;;14.55;69.80;96979.97;5098281;28;20075;-82
2024/02/24 00:43:52;;;;;;;5.07;3.03;;;;;;;14.65;68.39;96987.09;5108655;28;20040;-82
2024/02/24 00:47:00;;;;;;;9.07;3.25;;;;;;;14.64;68.12;96985.38;5100258;28;20170;-82
2024/02/24 00:49:58;;;;;;;3.95;2.65;;;;;;;14.61;68.71;96974.88;5087245;28;20048;-82
2024/02/24 00:52:50;;;;;;;5.25;3.30;;;;;;;14.67;69.41;96988.81;5110438;28;20038;-82
2024/02/24 00:55:43;;;;;;;7.70;3.65;;;;;;;14.58;70.11;96991.28;5083751;28;20070;-81
2024/02/24 00:59:09;;;;;;;4.93;2.90;;;;;;;14.52;70.52;96981.06;5082404;28;20048;-82
2024/02/24 01:01:59;;;;;;;4.55;3.13;;;;;;;14.51;71.60;96994.66;5099402;28;20118;-82
2024/02/24 01:05:06;;;;;;;9.20;4.50;;;;;;;14.36;73.94;96986.09;5111577;28;20482;-82
2024/02/24 01:08:03;;;;;;;6.78;3.83;;;;;;;14.24;75.15;96992.50;5111980;28;20375;-82
2024/02/24 01:11:35;;;;;;;7.13;3.65;;;;;;;14.26;74.99;96995.88;5095563;28;20075;-82
2024/02/24 01:14:31;;;;;;;5.93;2.90;;;;;;;14.44;73.40;96991.66;5104239;28;20034;-82
2024/02/24 01:17:59;;;;;;;4.18;2.55;;;;;;;14.53;71.33;96972.00;5102642;28;20090;-81
2024/02/24 01:21:09;;;;;;;4.10;2.13;;;;;;;14.54;71.68;96992.56;5110888;28;20031;-82
2024/02/24 01:24:39;;;;;;;4.40;2.55;;;;;;;14.53;72.22;96993.53;5087331;28;20356;-82
2024/02/24 01:27:46;;;;;;;5.65;3.22;;;;;;;14.49;72.85;97004.69;5104352;28;20086;-82
2024/02/24 01:31:16;;;;;;;4.82;3.05;;;;;;;14.38;74.11;97011.00;5080677;28;20058;-83
2024/02/24 01:34:44;;;;;;;6.15;3.45;;;;;;;14.29;75.35;96989.38;5086233;28;20031;-82
2024/02/24 01:50:40;;;;;;;5.00;3.42;;;;;;;14.19;78.49;97012.66;5048562;28;20088;-82
2024/02/24 01:53:56;;;;;;;6.28;3.30;;;;;;;14.16;79.03;97021.84;5043396;28;20033;-82
2024/02/24 01:57:08;;;;;;;6.30;3.40;;;;;;;14.17;79.48;97007.44;5047105;28;20033;-82
2024/02/24 02:00:42;;;;;;;4.60;3.25;;;;;;;14.05;81.70;97014.72;5064764;28;20072;-82
2024/02/24 02:04:15;;;;;;;4.72;3.10;;;;;;;14.00;82.93;97016.06;5067073;28;20032;-83
2024/02/24 02:07:27;;;;;;;4.63;2.70;;;;;;;13.94;83.74;97011.19;5063833;28;20068;-83
2024/02/24 02:10:52;;;;;;;6.45;3.15;;;;;;;13.93;84.23;97013.06;5056842;28;20048;-83
2024/02/24 02:13:44;;;;;;;5.15;3.22;;;;;;;13.89;85.75;97026.88;5073728;28;20025;-82
2024/02/24 02:16:55;;;;;;;4.80;2.75;;;;;;;13.88;85.53;97011.72;5075279;28;20031;-82
2024/02/24 02:20:06;;;;;;;6.07;3.10;;;;;;;13.89;85.51;97008.06;5102241;28;20030;-82
2024/02/24 02:23:28;;;;;;;2.90;1.92;;;;;;;14.01;84.07;96996.25;5074175;28;20036;-81
2024/02/24 02:26:35;;;;;;;6.97;3.50;;;;;;;14.03;83.67;96994.28;5067851;28;20128;-83
2024/02/24 02:29:43;;;;;;;6.70;2.95;;;;;;;14.02;83.84;96992.59;5052489;28;20036;-82
2024/02/24 02:32:40;;;;;;;3.97;2.22;;;;;;;13.98;84.86;96985.78;5069655;28;20048;-82
2024/02/24 02:35:16;;;;;;;3.83;2.83;;;;;;;13.91;85.50;96996.19;5055269;28;20044;-82
2024/02/24 02:38:21;;;;;;;7.15;2.65;;;;;;;13.99;84.06;96980.28;5048229;28;20068;-82
2024/02/24 02:41:10;;;;;;;4.38;2.55;;;;;;;14.06;83.23;96977.88;5064193;28;20596;-82
2024/02/24 02:44:27;;;;;;;3.38;2.38;;;;;;;14.04;83.57;96979.88;5019891;28;20048;-82
2024/02/24 02:47:50;;;;;;;5.13;2.88;;;;;;;14.03;83.91;96981.69;5075677;28;20090;-82
2024/02/24 02:51:06;;;;;;;3.92;2.72;;;;;;;13.97;85.20;97006.41;5078519;28;20113;-82
2024/02/24 02:54:13;;;;;;;4.10;2.83;;;;;;;14.00;84.89;97008.00;5082126;28;20207;-82
2024/02/24 02:57:41;;;;;;;5.63;3.00;;;;;;;13.90;86.28;97012.47;5079221;28;20035;-82
2024/02/24 03:01:07;;;;;;;6.72;3.42;;;;;;;13.88;86.95;97014.41;5100322;28;20039;-82
2024/02/24 03:04:12;;;;;;;3.83;2.60;;;;;;;13.84;87.78;97007.59;5099492;28;20047;-82
2024/02/24 03:07:25;;;;;;;4.75;2.72;;;;;;;13.79;87.73;97012.47;5052746;28;20123;-83
2024/02/24 03:10:32;;;;;;;4.93;2.47;;;;;;;13.85;86.71;97011.97;5086522;28;20036;-82
2024/02/24 03:14:04;;;;;;;3.47;2.25;;;;;;;13.87;85.92;97000.09;5057145;28;20107;-82
2024/02/24 03:17:38;;;;;;;4.22;2.33;;;;;;;13.91;85.03;97012.31;5072749;28;20036;-82
2024/02/24 03:20:49;;;;;;;2.60;1.63;;;;;;;13.98;84.70;97020.72;5085116;28;20028;-78
2024/02/24 03:24:19;;;;;;;3.88;2.40;;;;;;;13.97;85.11;97027.06;5084524;28;20055;-81
2024/02/24 03:27:36;;;;;;;4.43;2.60;;;;;;;13.93;85.69;97028.34;5059318;28;20070;-82
2024/02/24 03:31:02;;;;;;;4.35;2.85;;;;;;;13.85;86.73;97025.41;5069691;28;20044;-83
2024/02/24 03:34:31;;;;;;;4.10;2.50;;;;;;;13.75;88.11;97037.94;5086080;28;20024;-82
2024/02/24 03:37:59;;;;;;;3.72;2.28;;;;;;;13.75;89.20;97054.88;5064613;28;20064;-83
2024/02/24 03:41:12;;;;;;;3.53;2.38;;;;;;;13.72;89.86;97057.00;5067314;28;20101;-82
2024/02/24 03:44:04;;;;;;;3.63;2.35;;;;;;;13.66;90.41;97038.69;5025007;28;20499;-83
2024/02/24 03:46:53;;;;;;;3.80;2.53;;;;;;;13.64;91.36;97052.25;5102305;28;20118;-82
2024/02/24 03:50:13;;;;;;;5.45;2.65;;;;;;;13.61;91.52;97059.69;5106536;28;20194;-82
2024/02/24 03:53:21;;;;;;;3.28;2.22;;;;;;;13.63;91.31;97060.44;5112442;28;20092;-82
2024/02/24 03:56:38;;;;;;;4.28;2.60;;;;;;;13.58;91.24;97064.34;5097952;28;20068;-83
2024/02/24 04:00:17;;;;;;;5.07;2.60;;;;;;;13.58;91.83;97075.09;5112806;28;20039;-82
2024/02/24 04:03:49;;;;;;;4.93;2.78;;;;;;;13.60;92.38;97076.81;5111746;28;20140;-83
2024/02/24 04:06:48;;;;;;;3.65;2.60;;;;;;;13.47;93.69;97088.53;5070802;28;20135;-82
2024/02/24 04:13:16;;;;;;;7.55;2.92;;;;;;;13.41;94.62;97089.03;5112839;28;20092;-83
2024/02/24 04:16:16;;;;;;;4.18;2.42;;;;;;;13.49;93.74;97088.44;5079734;28;20479;-82
2024/02/24 04:19:53;;;;;;;3.83;2.72;;;;;;;13.39;94.81;97087.44;5111045;28;20103;-82
2024/02/24 04:23:26;;;;;;;6.63;2.67;;;;;;;13.46;93.47;97096.75;5112217;28;20494;-82
2024/02/24 04:26:42;;;;;;;4.00;2.45;;;;;;;13.50;92.37;97092.84;5112210;28;20027;-83
2024/02/24 04:29:57;;;;;;;4.90;2.60;;;;;;;13.45;91.04;97066.31;5093645;28;20096;-82
2024/02/24 04:33:29;;;;;;;4.00;2.42;;;;;;;13.68;87.49;97091.34;5102069;28;20031;-81
2024/02/24 04:36:58;;;;;;;7.00;2.55;;;;;;;13.79;85.81;97079.69;5110834;28;20426;-82
2024/02/24 04:47:22;;;;;;;3.22;2.03;;;;;;;13.78;86.19;97108.41;5005929;28;20147;-82
2024/02/24 04:50:59;;;;;;;4.55;2.72;;;;;;;13.80;85.07;97105.59;5009595;28;20128;-82
2024/02/24 05:01:36;;;;;;;4.63;2.40;;;;;;;13.82;85.28;97111.69;5010002;28;20133;-83
2024/02/24 05:04:54;;;;;;;5.00;2.33;;;;;;;13.80;85.75;97117.22;5009327;28;20064;-83
2024/02/24 05:08:26;;;;;;;3.88;2.72;;;;;;;13.68;86.66;97125.41;4993812;28;20050;-82
2024/02/24 05:12:00;;;;;;;2.88;1.98;;;;;;;13.68;86.62;97134.34;5004102;28;20599;-82
2024/02/24 05:15:27;;;;;;;5.72;2.78;;;;;;;13.62;87.52;97131.28;4965373;28;20030;-84
2024/02/24 05:18:33;;;;;;;6.03;2.80;;;;;;;13.58;87.10;97128.00;4986171;28;20038;-82
2024/02/24 05:22:10;;;;;;;3.72;2.53;;;;;;;13.65;87.05;97139.09;4910671;29;20075;-83
2024/02/24 05:29:20;;;;;;;4.18;2.70;;;;;;;13.64;86.87;97140.94;4951058;29;20431;-82
2024/02/24 05:32:40;;;;;;;5.65;2.20;;;;;;;13.70;85.70;97156.56;4944458;29;20050;-83
2024/02/24 05:36:06;;;;;;;4.88;1.98;;;;;;;13.84;83.10;97147.41;4942467;28;20034;-82
2024/02/24 05:39:15;;;;;;;4.20;2.13;;;;;;;13.91;82.44;97149.44;4944572;28;20035;-83
2024/02/24 05:42:43;;;;;;;3.83;2.50;;;;;;;14.12;80.13;97154.88;4925602;29;20151;-82
2024/02/24 05:45:50;;;;;;;2.97;2.22;;;;;;;14.62;76.14;97154.25;4953425;28;20047;-82
2024/02/24 05:49:27;;;;;;;7.93;4.28;;;;;;;15.12;70.87;97146.38;4951809;28;20043;-82
2024/02/24 05:53:01;;;;;;;4.47;2.80;;;;;;;15.10;69.54;97164.53;4939794;29;20217;-81
2024/02/24 05:59:27;;;;;;;5.53;2.00;;;;;;;15.40;67.10;97169.09;4948202;29;20067;-83
2024/02/24 06:02:38;;;;;;;2.78;1.80;;;;;;;15.61;63.98;97154.63;4977191;28;20050;-81
2024/02/24 06:05:51;;;;;;;3.15;1.80;;;;;;;15.60;62.88;97163.69;5011123;28;20050;-83
2024/02/24 06:09:17;;;;;;;8.25;4.10;;;;;;;15.55;63.05;97171.34;5007218;28;20039;-81
2024/02/24 06:12:27;;;;;;;3.10;2.00;;;;;;;15.87;62.02;97156.84;5028229;28;20036;-82
2024/02/24 06:15:54;;;;;;;8.73;4.50;;;;;;;16.93;57.61;97153.28;4991919;28;20033;-82
2024/02/24 06:19:29;;;;;;;3.47;2.05;;;;;;;17.86;53.60;97151.50;4969197;28;20561;-83
2024/02/24 06:22:58;;;;;;;2.35;1.70;;;;;;;18.32;51.61;97152.38;4983019;28;20065;-83
2024/02/24 06:26:30;;;;;;;15.75;9.32;;;;;;;18.09;51.89;97157.34;4974168;28;20046;-85
2024/02/24 06:30:07;;;;;;;5.20;3.00;;;;;;;18.07;51.29;97153.09;4980355;28;20185;-83
2024/02/24 06:33:36;;;;;;;2.92;1.95;;;;;;;18.39;50.79;97153.47;5012720;28;20036;-84
2024/02/24 06:37:03;;;;;;;2.10;1.50;;;;;;;19.15;48.29;97143.88;5022868;28;20080;-84
2024/02/24 06:40:16;;;;;;;3.25;2.35;;;;;;;19.36;47.80;97151.63;5030590;28;20068;-81
2024/02/24 06:43:31;;;;;;;4.82;1.70;;;;;;;19.85;46.30;97134.66;5008670;28;20132;-82
2024/02/24 06:47:15;;;;;;;2.80;1.92;;;;;;;19.36;46.62;97143.50;5030368;28;20048;-74
2024/02/24 06:50:46;;;;;;;4.38;2.20;;;;;;;19.25;47.00;97143.78;5031051;28;20033;-82
2024/02/24 06:53:54;;;;;;;1.80;1.40;;;;;;;18.98;47.34;97146.63;5018203;28;20029;-81
2024/02/24 06:57:09;;;;;;;3.13;1.77;;;;;;;19.09;46.83;97133.66;5024238;28;20505;-81
2024/02/24 07:04:02;;;;;;;2.13;1.50;;;;;;;19.10;46.74;97148.06;4991219;28;20197;-72
2024/02/24 07:07:32;;;;;;;2.95;1.85;;;;;;;19.36;46.31;97143.50;5011268;28;20113;-73
2024/02/24 07:10:52;;;;;;;3.10;2.03;;;;;;;20.04;45.72;97155.28;4993514;28;20049;-78
2024/02/24 07:14:09;;;;;;;5.85;3.50;;;;;;;19.96;45.10;97141.69;5006576;28;20461;-83
2024/02/24 07:17:50;;;;;;;2.72;2.08;;;;;;;20.87;42.86;97132.59;4989208;28;20045;-73
2024/02/24 07:20:58;;;;;;;4.00;2.63;;;;;;;21.14;42.60;97149.63;4990883;28;20113;-74
2024/02/24 07:24:31;;;;;;;5.18;2.30;;;;;;;21.72;41.50;97139.34;4977859;28;20042;-74
2024/02/24 07:28:21;;;;;;;5.20;2.58;;;;;;;22.79;40.14;97134.16;4986993;28;20184;-73
2024/02/24 07:31:29;;;;;;;10.88;7.60;;;;;;;23.69;38.69;97140.53;4972122;28;20034;-79
2024/02/24 07:35:08;;;;;;;26.63;16.50;;;;;;;24.52;37.41;97143.81;4980954;28;20030;-76
2024/02/24 07:38:44;;;;;;;4.13;3.00;;;;;;;25.11;36.22;97130.84;4989841;28;20089;-75
2024/02/24 07:42:04;;;;;;;6.07;3.03;;;;;;;25.52;35.43;97127.44;5037714;28;20445;-76
2024/02/24 07:45:14;;;;;;;4.80;2.40;;;;;;;25.04;35.63;97126.34;5022501;28;20048;-75
2024/02/24 07:48:47;;;;;;;4.80;3.20;;;;;;;24.24;36.15;97121.00;5030896;28;20126;-76
2024/02/24 07:52:00;;;;;;;3.55;2.83;;;;;;;23.33;37.49;97134.03;5006923;28;20132;-76
2024/02/24 07:55:27;;;;;;;5.05;2.08;;;;;;;22.87;38.42;97136.81;5028726;28;20180;-78
2024/02/24 07:58:52;;;;;;;4.60;2.50;;;;;;;22.66;38.55;97147.53;4971549;28;20097;-76
2024/02/24 08:02:27;;;;;;;10.32;7.38;;;;;;;22.77;38.61;97148.97;5039687;28;20041;-78
2024/02/24 08:06:04;;;;;;;15.45;10.07;;;;;;;23.05;38.37;97151.00;5046070;28;20454;-79
2024/02/24 08:09:20;;;;;;;3.78;2.10;;;;;;;23.54;37.26;97150.59;5041097;28;20041;-77
2024/02/24 08:12:27;;;;;;;4.53;2.17;;;;;;;23.82;36.58;97137.16;5039429;28;20116;-77
2024/02/24 08:15:33;;;;;;;2.78;2.08;;;;;;;23.83;36.50;97127.94;5045614;28;20033;-77
2024/02/24 08:21:39;;;;;;;2.72;1.40;;;;;;;24.88;34.92;97119.25;5032299;28;20083;-78
2024/02/24 08:28:31;;;;;;;3.25;1.35;;;;;;;25.58;33.46;97122.00;5088529;28;20097;-78
2024/02/24 08:32:00;;;;;;;4.32;1.55;;;;;;;25.83;33.61;97136.97;5088367;28;20055;-79
2024/02/24 08:35:33;;;;;;;6.40;2.08;;;;;;;26.45;33.00;97130.59;5084678;28;20169;-79
2024/02/24 08:39:02;;;;;;;1.77;1.30;;;;;;;26.32;32.73;97123.16;5086665;28;20036;-79
2024/02/24 08:42:20;;;;;;;3.08;2.00;;;;;;;25.85;33.18;97128.53;5088085;28;20150;-79
2024/02/24 08:45:57;;;;;;;3.10;1.67;;;;;;;24.60;34.72;97126.47;5085657;28;20549;-79
2024/02/24 08:49:08;;;;;;;2.30;1.40;;;;;;;24.72;34.79;97124.94;5087633;28;20624;-77
2024/02/24 08:52:25;;;;;;;4.05;2.05;;;;;;;24.65;35.14;97126.72;5063476;28;20040;-79
2024/02/24 08:55:53;;;;;;;2.13;1.63;;;;;;;24.36;35.04;97132.28;5045390;28;20122;-78
2024/02/24 08:59:19;;;;;;;3.20;1.80;;;;;;;23.42;36.17;97143.88;5038941;28;20037;-77
2024/02/24 09:02:52;;;;;;;2.17;1.58;;;;;;;22.76;36.82;97144.56;5044742;28;20123;-78
2024/02/24 09:06:20;;;;;;;1.92;1.50;;;;;;;22.34;37.54;97153.97;5037621;28;20032;-78
2024/02/24 09:09:47;;;;;;;1.17;1.08;;;;;;;23.05;37.10;97164.63;5024985;28;20472;-76
2024/02/24 09:13:15;;;;;;;4.28;2.50;;;;;;;23.79;36.37;97168.44;5018667;28;20132;-79
2024/02/24 09:16:46;;;;;;;2.03;1.70;;;;;;;22.97;36.97;97175.63;5015381;28;20049;-76
2024/02/24 09:20:30;;;;;;;3.20;2.17;;;;;;;22.64;38.07;97176.81;5005567;28;20037;-79
2024/02/24 09:27:39;;;;;;;1.55;1.40;;;;;;;22.26;38.31;97178.53;4967908;28;20053;-78
2024/02/24 09:30:51;;;;;;;1.80;1.50;;;;;;;22.65;37.88;97176.66;4966495;28;20062;-78
2024/02/24 09:34:18;;;;;;;3.83;2.10;;;;;;;22.80;37.60;97184.91;4966199;28;20566;-78
2024/02/24 09:37:44;;;;;;;2.72;1.83;;;;;;;22.54;37.94;97173.47;4962879;28;20027;-78
2024/02/24 09:41:27;;;;;;;1.88;1.60;;;;;;;22.48;38.75;97174.19;4978478;28;20038;-77
2024/02/24 09:45:17;;;;;;;5.15;2.60;;;;;;;22.28;38.15;97170.16;4980048;28;20085;-77
2024/02/24 09:48:43;;;;;;;2.15;1.40;;;;;;;21.98;39.08;97171.81;5007968;28;20037;-78
2024/02/24 09:52:15;;;;;;;3.70;1.63;;;;;;;22.28;38.67;97172.91;4998077;28;20042;-73
2024/02/24 09:55:59;;;;;;;2.83;1.77;;;;;;;23.21;37.65;97155.47;5002659;28;20382;-75
2024/02/24 09:58:53;;;;;;;3.40;1.55;;;;;;;24.88;35.99;97141.13;5002277;28;20092;-75
2024/02/24 10:02:27;;;;;;;1.88;1.30;;;;;;;26.20;33.84;97138.50;4992648;28;20042;-76
2024/02/24 10:05:51;;;;;;;2.95;1.67;;;;;;;26.89;33.14;97124.63;4999165;28;20049;-73
2024/02/24 10:09:07;;;;;;;4.38;2.20;;;;;;;26.67;33.41;97132.13;4996192;28;20117;-75
2024/02/24 10:12:47;;;;;;;9.43;1.75;;;;;;;27.37;32.57;97120.72;4970594;28;20125;-76
2024/02/24 10:16:19;;;;;;;2.90;1.58;;;;;;;29.14;30.28;97119.41;4989768;28;20057;-75
2024/02/24 10:22:53;;;;;;;11.25;3.00;;;;;;;30.08;29.74;97117.41;4988850;28;20848;-75
2024/02/24 10:26:13;;;;;;;4.22;2.78;;;;;;;31.05;28.35;97110.06;4990839;28;20061;-75
2024/02/24 10:29:43;;;;;;;3.75;2.38;;;;;;;28.30;30.31;97110.50;4991493;28;20038;-75
2024/02/24 10:32:50;;;;;;;2.47;1.50;;;;;;;26.39;32.09;97123.19;4985029;28;20042;-74
2024/02/24 10:36:20;;;;;;;4.18;2.22;;;;;;;26.24;32.56;97123.28;4979420;28;20215;-75
2024/02/24 10:40:03;;;;;;;2.83;1.42;;;;;;;26.54;32.58;97107.41;4999668;28;20092;-75
2024/02/24 10:53:25;;;;;;;1.77;1.42;;;;;;;25.34;33.92;97109.59;5030909;28;20126;-75
2024/02/24 10:57:06;;;;;;;2.53;1.73;;;;;;;26.72;32.46;97093.09;5030024;28;20041;-75
2024/02/24 11:00:18;;;;;;;16.33;9.95;;;;;;;28.41;30.70;97096.03;5082344;28;20560;-75
2024/02/24 11:03:15;;;;;;;3.67;1.58;;;;;;;28.98;29.87;97075.84;5079262;28;20040;-75
2024/02/24 11:06:42;;;;;;;2.42;1.80;;;;;;;30.06;29.17;97082.81;5063034;28;20063;-74
2024/02/24 11:10:19;;;;;;;3.42;2.15;;;;;;;28.57;29.36;97072.69;5084705;28;20207;-75
2024/02/24 11:13:47;;;;;;;1.50;1.30;;;;;;;28.61;29.81;97074.75;5051077;28;20036;-75
2024/02/24 11:17:29;;;;;;;3.28;1.40;;;;;;;27.69;29.58;97052.19;5048389;28;20527;-75
2024/02/24 11:24:11;;;;;;;1.88;1.63;;;;;;;27.08;30.33;97046.09;5004036;28;20039;-75
2024/02/24 11:27:37;;;;;;;1.98;1.35;;;;;;;27.77;29.58;97041.00;5027814;28;20131;-75
2024/02/24 11:30:46;;;;;;;4.80;2.60;;;;;;;27.65;29.86;97039.97;4991146;28;20038;-75
2024/02/24 11:34:08;;;;;;;1.45;1.33;;;;;;;27.04;30.35;97033.84;4991239;28;20124;-74
2024/02/24 11:37:35;;;;;;;2.55;1.27;;;;;;;26.90;30.25;97031.09;4990719;28;20557;-75
2024/02/24 11:41:01;;;;;;;4.43;2.78;;;;;;;28.52;29.04;97021.03;4981742;28;20038;-75
2024/02/24 11:44:30;;;;;;;2.47;1.52;;;;;;;29.26;28.55;97029.47;4999117;28;20032;-75
2024/02/24 11:48:08;;;;;;;3.20;1.50;;;;;;;30.08;27.85;97031.00;5005962;28;20049;-74
2024/02/24 11:51:41;;;;;;;1.35;1.23;;;;;;;29.83;27.33;97014.53;5009298;28;20503;-76
2024/02/24 11:55:11;;;;;;;1.67;1.42;;;;;;;28.97;28.35;97021.84;4997264;28;20030;-75
2024/02/24 11:58:36;;;;;;;3.30;1.67;;;;;;;29.38;28.19;97008.38;4980938;28;20049;-75
2024/02/24 12:02:04;;;;;;;4.25;1.00;;;;;;;28.79;28.56;97016.25;5045072;28;20068;-73
2024/02/24 12:05:38;;;;;;;2.42;1.83;;;;;;;28.49;28.82;97011.31;5108303;28;20158;-74
2024/02/24 12:12:38;;;;;;;2.45;1.60;;;;;;;30.68;27.39;97001.56;5113440;28;20038;-74
2024/02/24 12:16:04;;;;;;;2.35;1.20;;;;;;;30.48;27.17;97007.38;5103790;28;20038;-75
2024/02/24 12:19:39;;;;;;;1.52;1.33;;;;;;;28.83;28.57;97007.31;5050231;28;20040;-75
2024/02/24 12:22:48;;;;;;;1.52;1.38;;;;;;;29.08;28.23;96999.06;5048449;28;20044;-74
2024/02/24 12:26:24;;;;;;;1.92;1.40;;;;;;;28.51;28.81;97014.69;5007312;28;20418;-74
2024/02/24 12:29:51;;;;;;;5.00;1.55;;;;;;;27.99;29.43;97017.66;5008485;28;20116;-75
2024/02/24 12:33:00;;;;;;;2.45;1.13;;;;;;;28.25;29.21;97020.31;5010169;28;20532;-75
2024/02/24 12:36:26;;;;;;;1.52;1.20;;;;;;;28.63;28.79;97008.47;4940909;28;20130;-75
2024/02/24 12:39:47;;;;;;;5.88;1.38;;;;;;;29.52;28.11;97014.59;4924372;29;20039;-74
2024/02/24 12:46:27;;;;;;;2.22;1.20;;;;;;;29.44;27.88;97004.69;4918851;29;20291;-74
2024/02/24 12:50:08;;;;;;;1.30;1.00;;;;;;;28.66;28.03;96997.91;4924917;28;20089;-75
2024/02/24 12:53:42;;;;;;;1.42;1.02;;;;;;;26.60;30.06;96996.81;4944302;29;20482;-74
2024/02/24 13:00:30;;;;;;;2.60;1.38;;;;;;;25.42;31.30;97007.22;4948035;29;20103;-75
2024/02/24 13:04:04;;;;;;;5.88;1.30;;;;;;;24.86;31.96;97005.53;4918869;29;20042;-74
2024/02/24 13:07:24;;;;;;;2.08;1.40;;;;;;;24.88;32.30;97007.03;4937187;29;20074;-74
2024/02/24 13:10:57;;;;;;;2.03;1.40;;;;;;;24.97;32.52;97018.69;4971821;28;20503;-73
2024/02/24 13:14:29;;;;;;;1.15;1.05;;;;;;;24.38;32.86;97013.47;4965902;28;20031;-75
2024/02/24 13:18:00;;;;;;;1.20;1.10;;;;;;;24.02;33.52;97016.19;4969072;28;20472;-75
2024/02/24 13:21:29;;;;;;;1.95;1.50;;;;;;;24.07;33.55;97021.06;4959516;28;20152;-75
2024/02/24 13:24:47;;;;;;;3.58;1.48;;;;;;;23.37;34.51;97028.91;4977094;28;20031;-74
2024/02/24 13:27:47;;;;;;;7.00;4.57;;;;;;;22.92;34.94;97025.25;4985529;28;20577;-75
2024/02/24 13:31:21;;;;;;;1.83;1.30;;;;;;;22.08;35.99;97020.75;4972242;28;20049;-75
2024/02/24 13:34:31;;;;;;;1.48;1.25;;;;;;;21.83;37.16;97042.81;5011363;28;20032;-75
2024/02/24 13:37:50;;;;;;;1.92;1.20;;;;;;;22.02;36.67;97040.56;5042079;28;20401;-74
2024/02/24 13:41:27;;;;;;;1.50;1.40;;;;;;;21.97;37.16;97040.22;5008444;28;20132;-75
2024/02/24 13:44:37;;;;;;;5.07;1.60;;;;;;;21.59;38.16;97051.94;4943807;29;20095;-75
2024/02/24 13:54:11;;;;;;;2.05;1.73;;;;;;;21.11;39.22;97074.66;4965385;28;20049;-74
2024/02/24 13:57:32;;;;;;;3.78;2.20;;;;;;;21.10;39.71;97086.59;4965876;28;20058;-75
2024/02/24 14:01:00;;;;;;;3.85;1.90;;;;;;;21.19;39.67;97077.38;4939269;29;20203;-74
2024/02/24 14:04:26;;;;;;;2.70;1.70;;;;;;;21.51;39.36;97085.47;4949849;28;20106;-75
2024/02/24 14:08:00;;;;;;;3.33;2.00;;;;;;;21.31;39.67;97083.31;4940324;29;20427;-75
2024/02/24 14:11:07;;;;;;;2.08;1.42;;;;;;;21.43;39.75;97081.91;4934809;29;20081;-75
2024/02/24 14:14:14;;;;;;;5.65;1.88;;;;;;;21.48;39.68;97090.41;4956608;28;20116;-74
2024/02/24 14:17:27;;;;;;;2.15;1.73;;;;;;;21.01;40.76;97087.56;4982949;28;20414;-74
2024/02/24 14:20:35;;;;;;;2.08;1.40;;;;;;;21.04;40.14;97088.06;4955190;28;20720;-74
2024/02/24 14:24:03;;;;;;;8.07;2.20;;;;;;;21.02;40.40;97084.66;4968402;28;20412;-74
2024/02/24 14:27:11;;;;;;;1.58;1.30;;;;;;;20.95;40.19;97089.09;4963200;28;20517;-75
2024/02/24 14:30:16;;;;;;;5.88;1.52;;;;;;;21.02;39.96;97092.81;4970807;28;20046;-75
2024/02/24 14:33:28;;;;;;;3.05;2.05;;;;;;;21.10;39.88;97104.75;4953614;28;20099;-74
2024/02/24 14:36:34;;;;;;;3.58;2.40;;;;;;;20.85;41.16;97110.19;4940932;28;20038;-74
2024/02/24 14:43:33;;;;;;;6.50;3.50;;;;;;;20.51;41.61;97110.31;4991965;28;20654;-75
2024/02/24 14:54:40;;;;;;;5.68;3.08;;;;;;;19.88;42.96;97109.91;5021035;28;20045;-74
2024/02/24 14:58:07;;;;;;;7.00;3.38;;;;;;;19.75;43.16;97109.50;4961002;28;20051;-75
2024/02/24 15:01:24;;;;;;;3.72;2.78;;;;;;;19.80;43.07;97106.31;4952690;29;20035;-74
2024/02/24 15:04:57;;;;;;;3.38;2.40;;;;;;;19.79;43.23;97119.03;4950180;29;20043;-74
2024/02/24 15:08:28;;;;;;;4.97;2.90;;;;;;;19.77;42.97;97121.06;4942707;29;20403;-75
2024/02/24 15:11:56;;;;;;;5.05;2.22;;;;;;;19.76;43.32;97127.50;4944771;29;20039;-74
2024/02/24 15:15:18;;;;;;;8.60;5.15;;;;;;;19.75;43.21;97124.97;4936295;29;20058;-75
2024/02/24 15:18:33;;;;;;;8.73;4.85;;;;;;;19.76;43.88;97134.78;4947319;29;20039;-74
2024/02/24 15:21:45;;;;;;;12.40;5.55;;;;;;;19.80;43.87;97131.59;4952744;29;20138;-75
2024/02/24 15:24:39;;;;;;;10.10;4.70;;;;;;;19.78;43.74;97143.63;4934587;28;20074;-74
2024/02/24 15:27:53;;;;;;;9.18;4.32;;;;;;;19.66;43.90;97143.03;4948360;28;20050;-75
2024/02/24 15:31:14;;;;;;;3.75;2.80;;;;;;;19.65;43.72;97144.06;4943746;28;20046;-74
2024/02/24 15:34:32;;;;;;;5.60;2.47;;;;;;;19.56;43.82;97141.47;4910731;29;20064;-75
2024/02/24 15:37:39;;;;;;;9.98;3.35;;;;;;;19.47;44.27;97143.28;4910351;29;20076;-75
2024/02/24 15:41:06;;;;;;;9.88;5.07;;;;;;;19.41;44.95;97144.75;4897019;29;20386;-74
2024/02/24 15:44:39;;;;;;;18.70;5.72;;;;;;;19.29;45.58;97148.72;4914089;29;20436;-74
2024/02/24 15:47:49;;;;;;;5.82;3.63;;;;;;;19.16;45.28;97152.88;4896576;29;20048;-75
2024/02/24 15:50:37;;;;;;;36.65;13.35;;;;;;;19.06;45.35;97143.97;4961877;28;20039;-74
2024/02/24 15:54:04;;;;;;;17.23;8.77;;;;;;;19.03;45.60;97141.56;4990564;28;20050;-75
2024/02/24 15:57:18;;;;;;;17.83;9.25;;;;;;;18.90;46.03;97159.09;4987508;28;20498;-75
2024/02/24 16:00:28;;;;;;;20.35;9.30;;;;;;;18.82;46.89;97161.72;4988485;28;20046;-75
2024/02/24 16:03:59;;;;;;;32.08;12.25;;;;;;;18.71;48.44;97170.06;4990604;28;20030;-75
2024/02/24 16:07:05;;;;;;;;;;;;;;;18.59;48.34;97176.72;5049151;28;20041;-74
2024/02/24 16:10:11;;;;;;;23.70;10.38;;;;;;;18.41;49.46;97189.38;5103656;28;20388;-75
2024/02/24 16:13:24;;;;;;;31.35;9.43;;;;;;;18.25;49.70;97191.88;5102530;28;20400;-75
2024/02/24 16:17:03;;;;;;;15.02;7.20;;;;;;;18.16;49.68;97201.75;5088594;28;20039;-75
2024/02/24 16:20:48;;;;;;;28.48;11.05;;;;;;;18.09;50.24;97205.25;5043115;28;20515;-75
2024/02/24 16:27:54;;;;;;;24.20;10.80;;;;;;;18.02;50.64;97212.25;5049393;28;20086;-75
2024/02/24 16:31:29;;;;;;;15.02;6.68;;;;;;;17.98;50.94;97214.41;5048114;28;20409;-75
2024/02/24 16:35:02;;;;;;;16.55;7.95;;;;;;;18.04;51.12;97212.94;5014316;28;20029;-74
2024/02/24 16:38:22;;;;;;;12.23;7.60;;;;;;;18.03;51.27;97206.66;5028000;28;20414;-75
2024/02/24 16:41:30;;;;;;;21.02;9.45;;;;;;;18.01;51.60;97218.66;5027840;28;20042;-74
2024/02/24 16:44:25;;;;;;;16.02;8.25;;;;;;;17.98;51.87;97229.78;5005856;28;20093;-74
2024/02/24 16:47:27;;;;;;;9.55;4.68;;;;;;;17.97;52.31;97234.31;4992038;28;20049;-75
2024/02/24 16:51:02;;;;;;;14.93;8.43;;;;;;;17.90;52.27;97229.69;5038410;28;20075;-76
2024/02/24 16:54:29;;;;;;;7.88;4.90;;;;;;;17.93;52.43;97237.50;5017893;28;20042;-74
2024/02/24 16:57:24;;;;;;;9.98;5.50;;;;;;;17.92;52.77;97241.19;5014224;28;20659;-75
2024/02/24 17:00:56;;;;;;;15.27;8.90;;;;;;;17.94;52.86;97239.19;5021893;28;20452;-74
2024/02/24 17:04:05;;;;;;;19.88;8.02;;;;;;;17.88;53.50;97246.03;5005800;28;20033;-74
2024/02/24 17:07:36;;;;;;;16.33;8.88;;;;;;;17.84;53.62;97242.78;5008239;28;20037;-74
2024/02/24 17:10:56;;;;;;;16.27;8.20;;;;;;;17.86;53.77;97248.06;5015080;28;20548;-74
2024/02/24 17:14:09;;;;;;;12.02;7.80;;;;;;;17.83;53.98;97253.75;4993498;28;20037;-74
2024/02/24 17:17:55;;;;;;;10.95;5.38;;;;;;;17.80;54.14;97254.91;5026797;28;20048;-74
2024/02/24 17:21:35;;;;;;;15.30;7.97;;;;;;;17.79;54.60;97253.19;4975905;28;20175;-74